Time,TemperatureF,DewpointF,PressureIn,WindDirection,WindDirectionDegrees,WindSpeedMPH,WindSpeedGustMPH,Humidity,HourlyPrecipIn,Conditions,Clouds,dailyrainin,SoftwareType,DateUTC
2013-01-15 00:00:00,59.9,55.4,30.14,SW,228,0.0,0.0,85,0.00,,---,0.02,VWS V14.01,2013-01-15 05:00:00,
2013-01-15 00:01:00,59.9,55.4,30.14,SW,228,0.0,0.0,85,0.00,,---,0.00,VWS V14.01,2013-01-15 05:01:00,
2013-01-15 00:06:00,60.1,55.6,30.14,SW,228,0.0,0.0,85,0.00,,---,0.00,VWS V14.01,2013-01-15 05:06:00,
2013-01-15 00:11:00,60.3,55.8,30.14,SW,228,0.0,0.0,85,0.00,,---,0.00,VWS V14.01,2013-01-15 05:11:00,
2013-01-15 00:16:00,60.3,55.8,30.14,SW,228,0.0,0.0,85,0.00,,---,0.00,VWS V14.01,2013-01-15 05:16:00,
2013-01-15 00:21:00,60.3,55.8,30.14,SW,228,0.0,0.0,85,0.00,,---,0.00,VWS V14.01,2013-01-15 05:21:00,
2013-01-15 00:26:00,60.2,55.3,30.14,SW,228,0.0,0.0,84,0.00,,---,0.00,VWS V14.01,2013-01-15 05:26:00,
2013-01-15 00:30:00,60.1,55.6,30.14,SW,228,0.0,0.0,85,0.00,,---,0.00,VWS V14.01,2013-01-15 05:30:00,
2013-01-15 00:31:00,60.0,55.5,30.13,SW,228,0.0,0.0,85,0.00,,---,0.00,VWS V14.01,2013-01-15 05:31:00,
2013-01-15 00:36:00,59.9,55.1,30.14,SW,228,0.0,0.0,84,0.00,,---,0.00,VWS V14.01,2013-01-15 05:36:00,
2013-01-15 00:41:00,59.5,54.7,30.14,SW,228,0.0,0.0,84,0.00,,---,0.00,VWS V14.01,2013-01-15 05:41:00,
2013-01-15 00:46:00,59.3,54.5,30.14,SW,228,0.0,0.0,84,0.00,,---,0.00,VWS V14.01,2013-01-15 05:46:00,
2013-01-15 00:51:00,59.1,54.3,30.14,SW,228,0.0,0.0,84,0.00,,---,0.00,VWS V14.01,2013-01-15 05:51:00,
2013-01-15 00:56:00,59.0,54.2,30.14,SW,228,0.0,0.0,84,0.00,,---,0.00,VWS V14.01,2013-01-15 05:56:00,
2013-01-15 01:00:00,58.8,54.0,30.14,SW,228,0.0,0.0,84,0.00,,---,0.00,VWS V14.01,2013-01-15 06:00:00,
2013-01-15 01:01:00,58.8,54.0,30.14,SW,228,0.0,0.0,84,0.00,,---,0.00,VWS V14.01,2013-01-15 06:01:00,
2013-01-15 01:06:00,58.8,54.3,30.14,SW,228,0.0,0.0,85,0.00,,---,0.00,VWS V14.01,2013-01-15 06:06:00,
2013-01-15 01:11:00,58.6,53.8,30.14,SW,228,0.0,0.0,84,0.00,,---,0.00,VWS V14.01,2013-01-15 06:11:00,
2013-01-15 01:16:00,58.4,53.6,30.14,SW,228,0.0,0.0,84,0.00,,---,0.00,VWS V14.01,2013-01-15 06:16:00,
2013-01-15 01:21:00,58.1,53.3,30.14,SW,228,0.0,0.0,84,0.00,,---,0.00,VWS V14.01,2013-01-15 06:21:00,
2013-01-15 01:26:00,58.0,53.2,30.14,SW,228,0.0,0.0,84,0.00,,---,0.00,VWS V14.01,2013-01-15 06:26:00,
2013-01-15 01:30:00,58.0,53.5,30.14,SW,228,0.0,0.0,85,0.00,,---,0.00,VWS V14.01,2013-01-15 06:30:00,
2013-01-15 01:31:00,58.0,53.5,30.14,SW,228,0.0,0.0,85,0.00,,---,0.00,VWS V14.01,2013-01-15 06:31:00,
2013-01-15 01:36:00,57.8,53.0,30.14,SW,228,0.0,0.0,84,0.00,,---,0.00,VWS V14.01,2013-01-15 06:36:00,
2013-01-15 01:40:00,57.8,53.3,30.14,SW,228,0.0,0.0,85,0.00,,---,0.00,VWS V14.01,2013-01-15 06:40:00,
2013-01-15 01:45:00,57.8,53.3,30.14,SW,228,0.0,0.0,85,0.00,,---,0.00,VWS V14.01,2013-01-15 06:45:00,
2013-01-15 01:50:00,57.7,53.2,30.14,SW,228,0.0,0.0,85,0.00,,---,0.00,VWS V14.01,2013-01-15 06:50:00,
2013-01-15 01:55:00,57.6,53.1,30.14,SW,228,0.0,0.0,85,0.00,,---,0.00,VWS V14.01,2013-01-15 06:55:00,
2013-01-15 02:00:00,57.6,53.1,30.14,SW,228,0.0,0.0,85,0.00,,---,0.00,VWS V14.01,2013-01-15 07:00:00,
2013-01-15 02:05:00,57.6,53.1,30.14,SW,228,0.0,0.0,85,0.00,,---,0.00,VWS V14.01,2013-01-15 07:05:00,
2013-01-15 02:10:00,57.5,53.0,30.14,SW,228,0.0,0.0,85,0.00,,---,0.00,VWS V14.01,2013-01-15 07:10:00,
2013-01-15 02:15:00,57.4,52.9,30.14,SW,228,0.0,0.0,85,0.00,,---,0.00,VWS V14.01,2013-01-15 07:15:00,
2013-01-15 02:20:00,57.4,52.9,30.13,SW,228,0.0,0.0,85,0.00,,---,0.00,VWS V14.01,2013-01-15 07:20:00,
2013-01-15 02:25:00,57.1,52.6,30.13,SW,228,0.0,0.0,85,0.00,,---,0.00,VWS V14.01,2013-01-15 07:25:00,
2013-01-15 02:30:00,56.9,52.4,30.13,SW,228,0.0,0.0,85,0.00,,---,0.00,VWS V14.01,2013-01-15 07:30:00,
2013-01-15 02:35:00,56.9,52.4,30.13,SW,228,0.0,0.0,85,0.00,,---,0.00,VWS V14.01,2013-01-15 07:35:00,
2013-01-15 02:40:00,57.1,52.6,30.13,SW,228,0.0,0.0,85,0.00,,---,0.00,VWS V14.01,2013-01-15 07:40:00,
2013-01-15 02:45:00,57.1,52.6,30.13,SW,228,0.0,0.0,85,0.00,,---,0.00,VWS V14.01,2013-01-15 07:45:00,
2013-01-15 02:50:00,57.0,52.5,30.13,SW,228,0.0,0.0,85,0.00,,---,0.00,VWS V14.01,2013-01-15 07:50:00,
2013-01-15 02:55:00,56.9,52.4,30.12,SW,228,0.0,0.0,85,0.00,,---,0.00,VWS V14.01,2013-01-15 07:55:00,
2013-01-15 03:00:00,56.8,52.3,30.12,SW,228,0.0,0.0,85,0.00,,---,0.00,VWS V14.01,2013-01-15 08:00:00,
2013-01-15 03:05:00,56.7,52.2,30.12,SW,228,0.0,0.0,85,0.00,,---,0.00,VWS V14.01,2013-01-15 08:05:00,
2013-01-15 03:10:00,56.7,52.2,30.12,SW,228,0.0,0.0,85,0.00,,---,0.00,VWS V14.01,2013-01-15 08:10:00,
2013-01-15 03:15:00,56.8,52.3,30.12,SW,228,0.0,0.0,85,0.00,,---,0.00,VWS V14.01,2013-01-15 08:15:00,
2013-01-15 03:20:00,56.9,52.4,30.12,SW,228,0.0,0.0,85,0.00,,---,0.00,VWS V14.01,2013-01-15 08:20:00,
2013-01-15 03:25:00,56.9,52.4,30.12,SW,228,0.0,0.0,85,0.00,,---,0.00,VWS V14.01,2013-01-15 08:25:00,
2013-01-15 03:30:00,56.9,52.4,30.11,SW,228,0.0,0.0,85,0.00,,---,0.00,VWS V14.01,2013-01-15 08:30:00,
2013-01-15 03:35:00,57.0,52.5,30.11,SW,228,0.0,0.0,85,0.00,,---,0.00,VWS V14.01,2013-01-15 08:35:00,
2013-01-15 03:40:00,56.9,52.4,30.11,SW,228,0.0,0.0,85,0.00,,---,0.00,VWS V14.01,2013-01-15 08:40:00,
2013-01-15 03:45:00,56.9,52.4,30.11,SW,228,0.0,0.0,85,0.00,,---,0.00,VWS V14.01,2013-01-15 08:45:00,
2013-01-15 03:50:00,56.7,52.2,30.10,SW,228,0.0,0.0,85,0.00,,---,0.00,VWS V14.01,2013-01-15 08:50:00,
2013-01-15 03:55:00,56.9,52.4,30.11,SW,228,0.0,0.0,85,0.00,,---,0.00,VWS V14.01,2013-01-15 08:55:00,
2013-01-15 04:00:00,56.9,52.4,30.10,SW,228,0.0,0.0,85,0.00,,---,0.00,VWS V14.01,2013-01-15 09:00:00,
2013-01-15 04:05:00,56.9,52.4,30.10,SW,228,0.0,0.0,85,0.00,,---,0.00,VWS V14.01,2013-01-15 09:05:00,
2013-01-15 04:10:00,56.8,52.3,30.10,SW,228,0.0,0.0,85,0.00,,---,0.00,VWS V14.01,2013-01-15 09:10:00,
2013-01-15 04:15:00,56.8,52.3,30.10,SW,228,0.0,0.0,85,0.00,,---,0.00,VWS V14.01,2013-01-15 09:15:00,
2013-01-15 04:20:00,57.0,52.9,30.10,SW,228,0.0,0.0,86,0.00,,---,0.00,VWS V14.01,2013-01-15 09:20:00,
2013-01-15 04:25:00,57.2,53.1,30.10,SW,228,0.0,0.0,86,0.00,,---,0.00,VWS V14.01,2013-01-15 09:25:00,
2013-01-15 04:30:00,57.3,53.2,30.10,SW,228,0.0,0.0,86,0.00,,---,0.00,VWS V14.01,2013-01-15 09:30:00,
2013-01-15 04:35:00,57.3,53.2,30.10,SW,228,0.0,0.0,86,0.00,,---,0.00,VWS V14.01,2013-01-15 09:35:00,
2013-01-15 04:40:00,57.3,53.2,30.09,SW,228,0.0,0.0,86,0.00,,---,0.00,VWS V14.01,2013-01-15 09:40:00,
2013-01-15 04:45:00,57.3,53.2,30.09,SW,228,0.0,0.0,86,0.00,,---,0.00,VWS V14.01,2013-01-15 09:45:00,
2013-01-15 04:50:00,57.4,53.2,30.09,SW,228,0.0,0.0,86,0.00,,---,0.00,VWS V14.01,2013-01-15 09:50:00,
2013-01-15 04:55:00,57.6,53.5,30.09,SW,228,0.0,0.0,86,0.00,,---,0.00,VWS V14.01,2013-01-15 09:55:00,
2013-01-15 05:00:00,57.6,53.5,30.10,SW,228,0.0,0.0,86,0.01,,---,0.01,VWS V14.01,2013-01-15 10:00:00,
2013-01-15 05:05:00,57.8,53.7,30.09,SW,228,0.0,0.0,86,0.01,,---,0.01,VWS V14.01,2013-01-15 10:05:00,
2013-01-15 05:10:00,58.0,53.8,30.09,SW,228,0.0,0.0,86,0.01,,---,0.01,VWS V14.01,2013-01-15 10:10:00,
2013-01-15 05:15:00,58.0,53.8,30.09,SW,227,0.0,0.0,86,0.01,,---,0.01,VWS V14.01,2013-01-15 10:15:00,
2013-01-15 05:20:00,58.2,54.0,30.09,SW,221,0.0,0.0,86,0.01,,---,0.01,VWS V14.01,2013-01-15 10:20:00,
2013-01-15 05:25:00,58.4,54.2,30.09,SW,223,0.0,0.0,86,0.01,,---,0.01,VWS V14.01,2013-01-15 10:25:00,
2013-01-15 05:30:00,58.7,54.5,30.09,SW,223,0.0,0.0,86,0.01,,---,0.01,VWS V14.01,2013-01-15 10:30:00,
2013-01-15 05:35:00,59.0,54.8,30.09,SW,223,0.0,0.0,86,0.01,,---,0.01,VWS V14.01,2013-01-15 10:35:00,
2013-01-15 05:40:00,59.0,54.8,30.09,SW,223,0.0,0.0,86,0.01,,---,0.01,VWS V14.01,2013-01-15 10:40:00,
2013-01-15 05:45:00,59.4,55.2,30.09,SW,223,0.0,0.0,86,0.01,,---,0.01,VWS V14.01,2013-01-15 10:45:00,
2013-01-15 05:50:00,59.0,54.8,30.09,WSW,252,1.0,1.0,86,0.01,,---,0.01,VWS V14.01,2013-01-15 10:50:00,
2013-01-15 05:55:00,59.0,54.8,30.09,WSW,240,0.0,1.0,86,0.01,,---,0.01,VWS V14.01,2013-01-15 10:55:00,
2013-01-15 06:00:00,59.0,54.8,30.09,NW,322,0.0,1.0,86,0.01,,---,0.01,VWS V14.01,2013-01-15 11:00:00,
2013-01-15 06:05:00,59.0,54.8,30.09,NW,322,0.0,0.0,86,0.00,,---,0.01,VWS V14.01,2013-01-15 11:05:00,
2013-01-15 06:10:00,59.0,54.8,30.09,NW,322,0.0,0.0,86,0.00,,---,0.01,VWS V14.01,2013-01-15 11:10:00,
2013-01-15 06:15:00,59.0,54.8,30.09,NW,322,0.0,0.0,86,0.00,,---,0.01,VWS V14.01,2013-01-15 11:15:00,
2013-01-15 06:20:00,59.0,54.8,30.09,NW,322,0.0,0.0,86,0.00,,---,0.01,VWS V14.01,2013-01-15 11:20:00,
2013-01-15 06:25:00,59.0,54.8,30.09,NW,322,0.0,0.0,86,0.00,,---,0.01,VWS V14.01,2013-01-15 11:25:00,
2013-01-15 06:30:00,59.0,54.8,30.09,NW,322,0.0,0.0,86,0.00,,---,0.01,VWS V14.01,2013-01-15 11:30:00,
2013-01-15 06:35:00,59.0,54.8,30.09,NW,322,0.0,0.0,86,0.00,,---,0.01,VWS V14.01,2013-01-15 11:35:00,
2013-01-15 06:40:00,59.0,54.8,30.09,NW,322,0.0,0.0,86,0.00,,---,0.01,VWS V14.01,2013-01-15 11:40:00,
2013-01-15 06:45:00,59.0,54.8,30.09,NW,322,0.0,0.0,86,0.00,,---,0.01,VWS V14.01,2013-01-15 11:45:00,
2013-01-15 06:50:00,59.0,54.8,30.09,NW,322,0.0,0.0,86,0.00,,---,0.01,VWS V14.01,2013-01-15 11:50:00,
2013-01-15 06:55:00,59.0,54.8,30.10,NW,322,0.0,0.0,86,0.00,,---,0.01,VWS V14.01,2013-01-15 11:55:00,
2013-01-15 07:00:00,59.0,54.8,30.09,NW,322,0.0,0.0,86,0.00,,---,0.01,VWS V14.01,2013-01-15 12:00:00,
2013-01-15 07:05:00,59.0,54.8,30.10,NW,322,0.0,0.0,86,0.00,,---,0.01,VWS V14.01,2013-01-15 12:05:00,
2013-01-15 07:10:00,59.0,54.8,30.10,NW,322,0.0,0.0,86,0.00,,---,0.01,VWS V14.01,2013-01-15 12:10:00,
2013-01-15 07:15:00,59.0,54.8,30.10,NW,322,0.0,0.0,86,0.00,,---,0.01,VWS V14.01,2013-01-15 12:15:00,
2013-01-15 07:20:00,59.0,54.8,30.10,NW,322,0.0,0.0,86,0.00,,---,0.01,VWS V14.01,2013-01-15 12:20:00,
2013-01-15 07:25:00,59.0,54.8,30.10,NW,322,0.0,0.0,86,0.00,,---,0.01,VWS V14.01,2013-01-15 12:25:00,
2013-01-15 07:30:00,59.0,54.8,30.11,NW,322,0.0,0.0,86,0.00,,---,0.01,VWS V14.01,2013-01-15 12:30:00,
2013-01-15 07:35:00,59.0,54.8,30.11,NW,322,0.0,0.0,86,0.00,,---,0.01,VWS V14.01,2013-01-15 12:35:00,
2013-01-15 07:40:00,59.0,54.8,30.11,NW,322,0.0,0.0,86,0.00,,---,0.01,VWS V14.01,2013-01-15 12:40:00,
2013-01-15 07:45:00,59.0,54.8,30.11,NW,322,0.0,0.0,86,0.00,,---,0.01,VWS V14.01,2013-01-15 12:45:00,
2013-01-15 07:50:00,59.0,54.8,30.12,NW,322,0.0,0.0,86,0.00,,---,0.01,VWS V14.01,2013-01-15 12:50:00,
2013-01-15 07:55:00,56.7,52.6,30.12,SW,223,0.0,0.0,86,0.00,,---,0.01,VWS V14.01,2013-01-15 12:55:00,
2013-01-15 08:00:00,56.7,52.6,30.12,SW,223,0.0,0.0,86,0.00,,---,0.01,VWS V14.01,2013-01-15 13:00:00,
2013-01-15 08:05:00,56.8,52.7,30.12,SW,223,0.0,0.0,86,0.00,,---,0.01,VWS V14.01,2013-01-15 13:05:00,
2013-01-15 08:10:00,57.2,53.4,30.13,SW,223,0.0,0.0,87,0.00,,---,0.01,VWS V14.01,2013-01-15 13:10:00,
2013-01-15 08:15:00,57.8,54.0,30.13,SW,223,0.0,0.0,87,0.00,,---,0.01,VWS V14.01,2013-01-15 13:15:00,
2013-01-15 08:20:00,58.6,54.8,30.13,SW,223,0.0,0.0,87,0.00,,---,0.01,VWS V14.01,2013-01-15 13:20:00,
2013-01-15 08:25:00,58.9,55.0,30.13,SW,223,0.0,0.0,87,0.00,,---,0.01,VWS V14.01,2013-01-15 13:25:00,
2013-01-15 08:30:00,59.4,55.5,30.14,SW,223,0.0,0.0,87,0.00,,---,0.01,VWS V14.01,2013-01-15 13:30:00,
2013-01-15 08:35:00,59.8,55.9,30.14,SW,223,0.0,0.0,87,0.00,,---,0.01,VWS V14.01,2013-01-15 13:35:00,
2013-01-15 08:40:00,60.0,56.1,30.14,SW,223,0.0,0.0,87,0.00,,---,0.01,VWS V14.01,2013-01-15 13:40:00,
2013-01-15 08:45:00,60.3,56.4,30.14,SW,223,0.0,0.0,87,0.00,,---,0.01,VWS V14.01,2013-01-15 13:45:00,
2013-01-15 08:50:00,60.7,56.8,30.14,SW,223,0.0,0.0,87,0.00,,---,0.01,VWS V14.01,2013-01-15 13:50:00,
2013-01-15 08:55:00,60.5,56.6,30.14,SW,223,0.0,0.0,87,0.00,,---,0.01,VWS V14.01,2013-01-15 13:55:00,
2013-01-15 09:00:00,60.5,56.6,30.14,SW,223,0.0,0.0,87,0.00,,---,0.01,VWS V14.01,2013-01-15 14:00:00,
2013-01-15 09:05:00,60.7,56.8,30.14,SW,223,0.0,0.0,87,0.00,,---,0.01,VWS V14.01,2013-01-15 14:05:00,
2013-01-15 09:10:00,61.0,56.8,30.14,SW,223,0.0,0.0,86,0.00,,---,0.01,VWS V14.01,2013-01-15 14:10:00,
2013-01-15 09:15:00,61.4,57.5,30.15,SW,223,0.0,0.0,87,0.00,,---,0.01,VWS V14.01,2013-01-15 14:15:00,
2013-01-15 09:20:00,61.7,57.8,30.15,SW,223,0.0,0.0,87,0.00,,---,0.01,VWS V14.01,2013-01-15 14:20:00,
2013-01-15 09:25:00,61.5,57.3,30.15,SW,223,0.0,0.0,86,0.00,,---,0.01,VWS V14.01,2013-01-15 14:25:00,
2013-01-15 09:30:00,61.2,57.0,30.15,SW,223,0.0,0.0,86,0.00,,---,0.01,VWS V14.01,2013-01-15 14:30:00,
2013-01-15 09:35:00,61.5,57.3,30.15,SW,223,0.0,0.0,86,0.00,,---,0.01,VWS V14.01,2013-01-15 14:35:00,
2013-01-15 09:40:00,62.4,58.2,30.15,SW,225,0.0,0.0,86,0.00,,---,0.01,VWS V14.01,2013-01-15 14:40:00,
2013-01-15 09:45:00,63.0,59.1,30.15,SW,224,0.0,0.0,87,0.00,,---,0.01,VWS V14.01,2013-01-15 14:45:00,
2013-01-15 09:50:00,63.9,60.0,30.15,SW,230,0.0,0.0,87,0.00,,---,0.01,VWS V14.01,2013-01-15 14:50:00,
2013-01-15 09:55:00,65.2,61.2,30.14,SW,234,0.0,0.0,87,0.00,,---,0.01,VWS V14.01,2013-01-15 14:55:00,
2013-01-15 10:00:00,65.1,61.1,30.15,SSW,209,0.0,0.0,87,0.00,,---,0.01,VWS V14.01,2013-01-15 15:00:00,
2013-01-15 10:04:00,62.9,57.7,30.15,SSE,155,0.0,0.0,83,0.00,,---,0.01,VWS V14.01,2013-01-15 15:04:00,
2013-01-15 10:09:00,60.8,55.3,30.15,SSE,165,0.0,0.0,82,0.00,,---,0.01,VWS V14.01,2013-01-15 15:09:00,
2013-01-15 10:14:00,60.7,55.5,30.15,SSE,165,0.0,0.0,83,0.00,,---,0.01,VWS V14.01,2013-01-15 15:14:00,
2013-01-15 10:19:00,61.1,56.2,30.15,SW,215,0.0,0.0,84,0.00,,---,0.01,VWS V14.01,2013-01-15 15:19:00,
2013-01-15 10:24:00,61.7,56.8,30.15,SW,215,0.0,0.0,84,0.00,,---,0.01,VWS V14.01,2013-01-15 15:24:00,
2013-01-15 10:29:00,62.5,57.9,30.15,South,170,0.0,0.0,85,0.00,,---,0.01,VWS V14.01,2013-01-15 15:29:00,
2013-01-15 10:30:00,62.4,57.5,30.15,South,170,0.0,0.0,84,0.00,,---,0.01,VWS V14.01,2013-01-15 15:30:00,
2013-01-15 10:34:00,61.9,56.7,30.15,South,171,0.0,0.0,83,0.00,,---,0.01,VWS V14.01,2013-01-15 15:34:00,
2013-01-15 10:39:00,61.8,56.6,30.14,South,171,0.0,0.0,83,0.00,,---,0.01,VWS V14.01,2013-01-15 15:39:00,
2013-01-15 10:44:00,62.1,56.9,30.14,South,171,0.0,0.0,83,0.00,,---,0.01,VWS V14.01,2013-01-15 15:44:00,
2013-01-15 10:49:00,62.3,57.1,30.14,South,171,0.0,0.0,83,0.00,,---,0.01,VWS V14.01,2013-01-15 15:49:00,
2013-01-15 10:54:00,62.7,57.5,30.14,South,171,0.0,0.0,83,0.00,,---,0.01,VWS V14.01,2013-01-15 15:54:00,
2013-01-15 10:59:00,63.3,58.1,30.13,South,171,0.0,0.0,83,0.00,,---,0.01,VWS V14.01,2013-01-15 15:59:00,
2013-01-15 11:00:00,63.5,58.2,30.13,South,171,0.0,0.0,83,0.00,,---,0.01,VWS V14.01,2013-01-15 16:00:00,
2013-01-15 11:04:00,64.1,58.8,30.13,South,171,0.0,0.0,83,0.00,,---,0.01,VWS V14.01,2013-01-15 16:04:00,
2013-01-15 11:09:00,64.4,58.5,30.13,South,171,0.0,0.0,81,0.00,,---,0.01,VWS V14.01,2013-01-15 16:09:00,
2013-01-15 11:14:00,64.4,58.5,30.13,South,171,0.0,0.0,81,0.00,,---,0.01,VWS V14.01,2013-01-15 16:14:00,
2013-01-15 11:19:00,64.5,58.2,30.13,South,182,0.0,0.0,80,0.00,,---,0.01,VWS V14.01,2013-01-15 16:19:00,
2013-01-15 11:24:00,64.7,58.4,30.12,South,186,0.0,0.0,80,0.00,,---,0.01,VWS V14.01,2013-01-15 16:24:00,
2013-01-15 11:29:00,64.8,58.5,30.12,SW,233,0.0,0.0,80,0.00,,---,0.01,VWS V14.01,2013-01-15 16:29:00,
2013-01-15 11:30:00,64.9,58.6,30.12,SW,233,0.0,0.0,80,0.00,,---,0.01,VWS V14.01,2013-01-15 16:30:00,
2013-01-15 11:34:00,65.1,58.4,30.12,SW,234,0.0,0.0,79,0.00,,---,0.01,VWS V14.01,2013-01-15 16:34:00,
2013-01-15 11:39:00,64.9,57.9,30.12,SW,234,0.0,0.0,78,0.00,,---,0.01,VWS V14.01,2013-01-15 16:39:00,
2013-01-15 11:44:00,64.1,57.1,30.12,South,171,0.0,0.0,78,0.00,,---,0.01,VWS V14.01,2013-01-15 16:44:00,
2013-01-15 11:49:00,63.6,56.6,30.11,South,171,0.0,0.0,78,0.00,,---,0.01,VWS V14.01,2013-01-15 16:49:00,
2013-01-15 11:54:00,63.6,57.0,30.12,WSW,237,0.0,0.0,79,0.00,,---,0.01,VWS V14.01,2013-01-15 16:54:00,
2013-01-15 11:59:00,63.7,57.1,30.11,SW,232,0.0,3.0,79,0.00,,---,0.01,VWS V14.01,2013-01-15 16:59:00,
2013-01-15 12:00:00,63.8,57.2,30.11,SW,233,0.0,3.0,79,0.00,,---,0.01,VWS V14.01,2013-01-15 17:00:00,
2013-01-15 12:04:00,64.0,57.4,30.11,SW,232,0.0,1.0,79,0.00,,---,0.01,VWS V14.01,2013-01-15 17:04:00,
2013-01-15 12:09:00,64.3,57.7,30.10,SW,219,0.0,4.0,79,0.00,,---,0.01,VWS V14.01,2013-01-15 17:09:00,
2013-01-15 12:14:00,64.3,57.3,30.10,SW,221,0.0,4.0,78,0.00,,---,0.01,VWS V14.01,2013-01-15 17:14:00,
2013-01-15 12:19:00,64.5,57.5,30.10,SW,221,0.0,4.0,78,0.00,,---,0.01,VWS V14.01,2013-01-15 17:19:00,
2013-01-15 12:24:00,65.0,58.3,30.10,SW,221,0.0,4.0,79,0.00,,---,0.01,VWS V14.01,2013-01-15 17:24:00,
2013-01-15 12:29:00,65.6,58.6,30.10,SW,221,6.0,6.0,78,0.00,,---,0.01,VWS V14.01,2013-01-15 17:29:00,
2013-01-15 12:30:00,65.7,58.3,30.10,SW,221,6.0,8.0,77,0.00,,---,0.01,VWS V14.01,2013-01-15 17:30:00,
2013-01-15 12:34:00,65.4,57.7,30.09,SW,221,2.0,6.0,76,0.00,,---,0.01,VWS V14.01,2013-01-15 17:34:00,
2013-01-15 12:39:00,64.8,57.4,30.09,SW,223,0.0,6.0,77,0.00,,---,0.01,VWS V14.01,2013-01-15 17:39:00,
2013-01-15 12:44:00,64.4,57.0,30.09,SW,235,0.0,6.0,77,0.00,,---,0.01,VWS V14.01,2013-01-15 17:44:00,
2013-01-15 12:49:00,64.3,57.3,30.08,SW,220,0.0,6.0,78,0.00,,---,0.01,VWS V14.01,2013-01-15 17:49:00,
2013-01-15 12:54:00,64.5,57.5,30.08,SW,220,0.0,6.0,78,0.00,,---,0.01,VWS V14.01,2013-01-15 17:54:00,
2013-01-15 12:59:00,64.8,57.8,30.08,South,186,8.0,8.0,78,0.00,,---,0.01,VWS V14.01,2013-01-15 17:59:00,
2013-01-15 13:00:00,64.8,57.4,30.08,South,190,4.0,9.0,77,0.00,,---,0.01,VWS V14.01,2013-01-15 18:00:00,
2013-01-15 13:04:00,64.1,56.4,30.08,South,171,0.0,6.0,76,0.00,,---,0.01,VWS V14.01,2013-01-15 18:04:00,
2013-01-15 13:09:00,63.6,56.3,30.08,South,171,0.0,6.0,77,0.00,,---,0.01,VWS V14.01,2013-01-15 18:09:00,
2013-01-15 13:14:00,63.3,56.3,30.08,South,188,0.0,6.0,78,0.00,,---,0.01,VWS V14.01,2013-01-15 18:14:00,
2013-01-15 13:19:00,63.2,56.6,30.07,South,188,0.0,6.0,79,0.00,,---,0.01,VWS V14.01,2013-01-15 18:19:00,
2013-01-15 13:24:00,63.4,56.8,30.08,South,188,0.0,6.0,79,0.00,,---,0.01,VWS V14.01,2013-01-15 18:24:00,
2013-01-15 13:29:00,63.8,57.2,30.07,SSW,202,0.0,6.0,79,0.00,,---,0.01,VWS V14.01,2013-01-15 18:29:00,
2013-01-15 13:30:00,63.9,57.3,30.07,SSW,202,0.0,6.0,79,0.00,,---,0.01,VWS V14.01,2013-01-15 18:30:00,
2013-01-15 13:34:00,64.1,57.5,30.08,SSW,202,0.0,5.0,79,0.00,,---,0.01,VWS V14.01,2013-01-15 18:34:00,
2013-01-15 13:39:00,64.4,57.4,30.07,SSW,211,3.0,6.0,78,0.00,,---,0.01,VWS V14.01,2013-01-15 18:39:00,
2013-01-15 13:44:00,64.8,57.8,30.07,SSW,208,0.0,6.0,78,0.00,,---,0.01,VWS V14.01,2013-01-15 18:44:00,
2013-01-15 13:49:00,65.3,58.3,30.07,SW,221,2.0,6.0,78,0.00,,---,0.01,VWS V14.01,2013-01-15 18:49:00,
2013-01-15 13:54:00,65.9,58.9,30.07,SW,221,2.0,6.0,78,0.00,,---,0.01,VWS V14.01,2013-01-15 18:54:00,
2013-01-15 13:59:00,66.7,59.3,30.07,SW,221,1.0,6.0,77,0.00,,---,0.01,VWS V14.01,2013-01-15 18:59:00,
2013-01-15 14:00:00,67.0,59.6,30.07,SSW,200,6.0,7.0,77,0.00,,---,0.01,VWS V14.01,2013-01-15 19:00:00,
2013-01-15 14:04:00,67.2,59.0,30.07,SW,217,7.0,9.0,75,0.00,,---,0.01,VWS V14.01,2013-01-15 19:04:00,
2013-01-15 14:09:00,66.9,58.3,30.07,South,190,0.0,9.0,74,0.00,,---,0.01,VWS V14.01,2013-01-15 19:09:00,
2013-01-15 14:14:00,66.2,58.0,30.07,SSW,201,1.0,9.0,75,0.00,,---,0.01,VWS V14.01,2013-01-15 19:14:00,
2013-01-15 14:19:00,66.0,57.9,30.07,SW,220,0.0,9.0,75,0.00,,---,0.01,VWS V14.01,2013-01-15 19:19:00,
2013-01-15 14:24:00,66.4,58.6,30.07,SSW,212,1.0,9.0,76,0.00,,---,0.01,VWS V14.01,2013-01-15 19:24:00,
2013-01-15 14:29:00,66.8,58.6,30.06,SSW,211,0.0,9.0,75,0.00,,---,0.01,VWS V14.01,2013-01-15 19:29:00,
2013-01-15 14:30:00,66.8,58.6,30.06,SSW,207,0.0,9.0,75,0.00,,---,0.01,VWS V14.01,2013-01-15 19:30:00,
2013-01-15 14:34:00,66.7,58.2,30.06,SW,218,5.0,7.0,74,0.00,,---,0.01,VWS V14.01,2013-01-15 19:34:00,
2013-01-15 14:39:00,66.1,58.0,30.06,SSW,205,5.0,7.0,75,0.00,,---,0.01,VWS V14.01,2013-01-15 19:39:00,
2013-01-15 14:44:00,66.2,58.4,30.06,SSW,204,0.0,7.0,76,0.00,,---,0.01,VWS V14.01,2013-01-15 19:44:00,
2013-01-15 14:49:00,65.4,57.3,30.06,SE,131,0.0,9.0,75,0.00,,---,0.01,VWS V14.01,2013-01-15 19:49:00,
2013-01-15 14:54:00,65.1,57.4,30.06,SE,131,0.0,9.0,76,0.00,,---,0.01,VWS V14.01,2013-01-15 19:54:00,
2013-01-15 14:59:00,64.9,57.2,30.06,SE,131,0.0,9.0,76,0.00,,---,0.01,VWS V14.01,2013-01-15 19:59:00,
2013-01-15 15:00:00,64.9,57.2,30.06,SE,131,0.0,9.0,76,0.00,,---,0.01,VWS V14.01,2013-01-15 20:00:00,
2013-01-15 15:04:00,64.9,57.5,30.06,SE,131,0.0,0.0,77,0.00,,---,0.01,VWS V14.01,2013-01-15 20:04:00,
2013-01-15 15:09:00,64.9,57.2,30.06,SE,146,0.0,0.0,76,0.00,,---,0.01,VWS V14.01,2013-01-15 20:09:00,
2013-01-15 15:14:00,65.0,57.6,30.06,SSE,150,0.0,0.0,77,0.00,,---,0.01,VWS V14.01,2013-01-15 20:14:00,
2013-01-15 15:19:00,65.2,57.8,30.06,SSE,167,3.0,3.0,77,0.00,,---,0.01,VWS V14.01,2013-01-15 20:19:00,
2013-01-15 15:24:00,65.4,57.7,30.06,SSW,202,0.0,6.0,76,0.00,,---,0.01,VWS V14.01,2013-01-15 20:24:00,
2013-01-15 15:29:00,65.4,57.7,30.06,SSW,208,1.0,6.0,76,0.00,,---,0.01,VWS V14.01,2013-01-15 20:29:00,
2013-01-15 15:30:00,65.4,58.0,30.06,SSW,208,2.0,6.0,77,0.00,,---,0.01,VWS V14.01,2013-01-15 20:30:00,
2013-01-15 15:34:00,65.4,58.0,30.06,SSW,208,0.0,4.0,77,0.00,,---,0.01,VWS V14.01,2013-01-15 20:34:00,
2013-01-15 15:39:00,65.6,58.2,30.06,SW,221,0.0,4.0,77,0.00,,---,0.01,VWS V14.01,2013-01-15 20:39:00,
2013-01-15 15:44:00,66.3,58.9,30.06,SW,223,1.0,5.0,77,0.00,,---,0.01,VWS V14.01,2013-01-15 20:44:00,
2013-01-15 15:49:00,67.0,59.6,30.06,SW,219,5.0,5.0,77,0.00,,---,0.01,VWS V14.01,2013-01-15 20:49:00,
2013-01-15 15:54:00,66.9,59.1,30.06,SSW,202,5.0,7.0,76,0.00,,---,0.01,VWS V14.01,2013-01-15 20:54:00,
2013-01-15 15:59:00,66.3,58.5,30.06,SW,217,5.0,8.0,76,0.00,,---,0.01,VWS V14.01,2013-01-15 20:59:00,
2013-01-15 16:00:00,66.0,58.2,30.06,SW,217,3.0,8.0,76,0.00,,---,0.01,VWS V14.01,2013-01-15 21:00:00,
2013-01-15 16:04:00,65.7,57.9,30.06,SSW,202,6.0,6.0,76,0.00,,---,0.01,VWS V14.01,2013-01-15 21:04:00,
2013-01-15 16:09:00,65.4,57.7,30.06,South,191,7.0,7.0,76,0.00,,---,0.01,VWS V14.01,2013-01-15 21:09:00,
2013-01-15 16:14:00,64.6,57.2,30.06,SW,214,5.0,9.0,77,0.00,,---,0.01,VWS V14.01,2013-01-15 21:14:00,
2013-01-15 16:19:00,64.0,56.7,30.06,South,188,0.0,9.0,77,0.00,,---,0.01,VWS V14.01,2013-01-15 21:19:00,
2013-01-15 16:24:00,63.4,56.4,30.06,SSW,207,0.0,9.0,78,0.00,,---,0.01,VWS V14.01,2013-01-15 21:24:00,
2013-01-15 16:29:00,63.5,56.9,30.06,SSW,209,0.0,9.0,79,0.00,,---,0.01,VWS V14.01,2013-01-15 21:29:00,
2013-01-15 16:30:00,63.5,56.9,30.06,SSW,213,0.0,9.0,79,0.00,,---,0.01,VWS V14.01,2013-01-15 21:30:00,
2013-01-15 16:34:00,63.6,57.0,30.06,SSW,213,0.0,2.0,79,0.00,,---,0.01,VWS V14.01,2013-01-15 21:34:00,
2013-01-15 16:39:00,63.4,56.4,30.07,SSW,212,6.0,11.0,78,0.00,,---,0.01,VWS V14.01,2013-01-15 21:39:00,
2013-01-15 16:44:00,62.6,55.7,30.07,SW,222,5.0,11.0,78,0.00,,---,0.01,VWS V14.01,2013-01-15 21:44:00,
2013-01-15 16:49:00,62.3,56.1,30.07,SW,215,5.0,11.0,80,0.00,,---,0.01,VWS V14.01,2013-01-15 21:49:00,
2013-01-15 16:54:00,61.9,55.7,30.07,SW,221,2.0,11.0,80,0.00,,---,0.01,VWS V14.01,2013-01-15 21:54:00,
2013-01-15 16:59:00,61.5,55.3,30.07,SW,231,5.0,11.0,80,0.00,,---,0.01,VWS V14.01,2013-01-15 21:59:00,
2013-01-15 17:00:00,61.4,55.5,30.07,SW,232,5.0,11.0,81,0.00,,---,0.01,VWS V14.01,2013-01-15 22:00:00,
2013-01-15 17:04:00,61.4,55.5,30.07,SW,227,4.0,7.0,81,0.00,,---,0.01,VWS V14.01,2013-01-15 22:04:00,
2013-01-15 17:08:00,61.5,56.0,30.07,SW,221,3.0,10.0,82,0.00,,---,0.01,VWS V14.01,2013-01-15 22:08:00,
2013-01-15 17:13:00,61.6,56.1,30.07,SSW,206,1.0,10.0,82,0.00,,---,0.01,VWS V14.01,2013-01-15 22:13:00,
2013-01-15 17:18:00,61.6,56.1,30.07,SW,221,5.0,10.0,82,0.00,,---,0.01,VWS V14.01,2013-01-15 22:18:00,
2013-01-15 17:23:00,61.6,56.1,30.07,SW,217,5.0,10.0,82,0.00,,---,0.01,VWS V14.01,2013-01-15 22:23:00,
2013-01-15 17:28:00,61.6,56.1,30.07,SW,226,4.0,10.0,82,0.00,,---,0.01,VWS V14.01,2013-01-15 22:28:00,
2013-01-15 17:30:00,61.5,56.0,30.07,SW,232,4.0,10.0,82,0.00,,---,0.01,VWS V14.01,2013-01-15 22:30:00,
2013-01-15 17:33:00,61.5,56.0,30.07,SW,221,4.0,9.0,82,0.00,,---,0.01,VWS V14.01,2013-01-15 22:33:00,
2013-01-15 17:38:00,61.3,55.8,30.07,SW,225,3.0,9.0,82,0.00,,---,0.01,VWS V14.01,2013-01-15 22:38:00,
2013-01-15 17:43:00,61.2,55.7,30.08,SW,218,5.0,9.0,82,0.00,,---,0.01,VWS V14.01,2013-01-15 22:43:00,
2013-01-15 17:48:00,61.2,56.0,30.08,SW,228,3.0,9.0,83,0.00,,---,0.01,VWS V14.01,2013-01-15 22:48:00,
2013-01-15 17:53:00,61.3,56.1,30.08,SW,217,4.0,9.0,83,0.00,,---,0.01,VWS V14.01,2013-01-15 22:53:00,
2013-01-15 17:58:00,61.3,56.1,30.08,SW,221,6.0,9.0,83,0.00,,---,0.01,VWS V14.01,2013-01-15 22:58:00,
2013-01-15 18:00:00,61.4,56.2,30.08,SW,229,4.0,9.0,83,0.00,,---,0.01,VWS V14.01,2013-01-15 23:00:00,
2013-01-15 18:03:00,61.4,56.2,30.08,SW,216,8.0,9.0,83,0.00,,---,0.01,VWS V14.01,2013-01-15 23:03:00,
2013-01-15 18:08:00,61.4,56.2,30.08,SW,236,4.0,10.0,83,0.00,,---,0.01,VWS V14.01,2013-01-15 23:08:00,
2013-01-15 18:13:00,61.5,56.3,30.08,SW,215,9.0,10.0,83,0.00,,---,0.01,VWS V14.01,2013-01-15 23:13:00,
2013-01-15 18:18:00,61.5,56.3,30.08,SW,217,6.0,11.0,83,0.00,,---,0.01,VWS V14.01,2013-01-15 23:18:00,
2013-01-15 18:23:00,61.5,56.3,30.08,SW,219,7.0,11.0,83,0.00,,---,0.01,VWS V14.01,2013-01-15 23:23:00,
2013-01-15 18:28:00,61.4,56.2,30.08,SSW,212,5.0,12.0,83,0.00,,---,0.01,VWS V14.01,2013-01-15 23:28:00,
2013-01-15 18:30:00,61.3,56.1,30.09,SW,221,13.0,13.0,83,0.00,,---,0.01,VWS V14.01,2013-01-15 23:30:00,
2013-01-15 18:33:00,61.2,56.0,30.09,SW,218,10.0,13.0,83,0.00,,---,0.01,VWS V14.01,2013-01-15 23:33:00,
2013-01-15 18:38:00,61.0,55.8,30.09,SSW,200,7.0,13.0,83,0.00,,---,0.01,VWS V14.01,2013-01-15 23:38:00,
2013-01-15 18:43:00,60.6,55.4,30.09,SW,218,6.0,13.0,83,0.00,,---,0.01,VWS V14.01,2013-01-15 23:43:00,
2013-01-15 18:48:00,60.5,55.7,30.10,SW,227,5.0,13.0,84,0.00,,---,0.01,VWS V14.01,2013-01-15 23:48:00,
2013-01-15 18:53:00,60.4,55.2,30.10,SW,225,3.0,13.0,83,0.00,,---,0.01,VWS V14.01,2013-01-15 23:53:00,
2013-01-15 18:58:00,60.3,55.5,30.10,SW,226,3.0,13.0,84,0.00,,---,0.01,VWS V14.01,2013-01-15 23:58:00,
2013-01-15 19:00:00,60.3,55.5,30.10,SW,224,4.0,13.0,84,0.00,,---,0.01,VWS V14.01,2013-01-16 00:00:00,
2013-01-15 19:03:00,60.5,55.7,30.10,SW,224,8.0,10.0,84,0.00,,---,0.01,VWS V14.01,2013-01-16 00:03:00,
2013-01-15 19:08:00,60.7,55.8,30.10,SW,224,2.0,10.0,84,0.00,,---,0.01,VWS V14.01,2013-01-16 00:08:00,
2013-01-15 19:13:00,60.7,55.8,30.09,SW,227,0.0,10.0,84,0.00,,---,0.01,VWS V14.01,2013-01-16 00:13:00,
2013-01-15 19:18:00,60.7,55.8,30.09,SW,228,7.0,10.0,84,0.00,,---,0.01,VWS V14.01,2013-01-16 00:18:00,
2013-01-15 19:23:00,60.9,56.0,30.09,SW,229,4.0,10.0,84,0.00,,---,0.01,VWS V14.01,2013-01-16 00:23:00,
2013-01-15 19:28:00,61.1,56.2,30.09,SW,215,5.0,10.0,84,0.00,,---,0.01,VWS V14.01,2013-01-16 00:28:00,
2013-01-15 19:30:00,61.1,56.2,30.09,SW,234,0.0,10.0,84,0.00,,---,0.01,VWS V14.01,2013-01-16 00:30:00,
2013-01-15 19:33:00,61.3,56.4,30.09,SW,232,3.0,8.0,84,0.00,,---,0.01,VWS V14.01,2013-01-16 00:33:00,
2013-01-15 19:38:00,61.3,56.4,30.09,SW,229,6.0,9.0,84,0.00,,---,0.01,VWS V14.01,2013-01-16 00:38:00,
2013-01-15 19:43:00,61.2,56.3,30.09,SW,221,0.0,9.0,84,0.00,,---,0.01,VWS V14.01,2013-01-16 00:43:00,
2013-01-15 19:48:00,61.7,57.2,30.09,WSW,237,4.0,9.0,85,0.00,,---,0.01,VWS V14.01,2013-01-16 00:48:00,
2013-01-15 19:53:00,62.0,57.5,30.09,SW,221,3.0,9.0,85,0.00,,---,0.01,VWS V14.01,2013-01-16 00:53:00,
2013-01-15 19:58:00,61.8,57.2,30.09,SW,217,0.0,9.0,85,0.00,,---,0.01,VWS V14.01,2013-01-16 00:58:00,
2013-01-15 20:00:00,61.8,57.2,30.09,SW,217,0.0,9.0,85,0.00,,---,0.01,VWS V14.01,2013-01-16 01:00:00,
2013-01-15 20:03:00,61.8,57.2,30.09,SW,220,5.0,6.0,85,0.00,,---,0.01,VWS V14.01,2013-01-16 01:03:00,
2013-01-15 20:08:00,61.9,57.3,30.09,SW,227,0.0,6.0,85,0.00,,---,0.01,VWS V14.01,2013-01-16 01:08:00,
2013-01-15 20:13:00,62.3,57.7,30.09,SW,234,0.0,6.0,85,0.00,,---,0.01,VWS V14.01,2013-01-16 01:13:00,
2013-01-15 20:18:00,62.5,57.9,30.08,SW,231,0.0,6.0,85,0.00,,---,0.01,VWS V14.01,2013-01-16 01:18:00,
2013-01-15 20:23:00,62.6,58.0,30.08,SW,224,0.0,6.0,85,0.00,,---,0.01,VWS V14.01,2013-01-16 01:23:00,
2013-01-15 20:28:00,62.6,58.0,30.08,SW,223,5.0,6.0,85,0.00,,---,0.01,VWS V14.01,2013-01-16 01:28:00,
2013-01-15 20:30:00,62.6,58.0,30.08,SW,225,0.0,6.0,85,0.00,,---,0.01,VWS V14.01,2013-01-16 01:30:00,
2013-01-15 20:33:00,62.6,58.0,30.08,SW,226,0.0,0.0,85,0.00,,---,0.01,VWS V14.01,2013-01-16 01:33:00,
2013-01-15 20:38:00,62.6,58.0,30.08,SW,226,0.0,0.0,85,0.00,,---,0.01,VWS V14.01,2013-01-16 01:38:00,
2013-01-15 20:43:00,62.7,58.1,30.08,SW,226,0.0,0.0,85,0.00,,---,0.01,VWS V14.01,2013-01-16 01:43:00,
2013-01-15 20:48:00,62.7,58.1,30.08,South,188,0.0,3.0,85,0.00,,---,0.01,VWS V14.01,2013-01-16 01:48:00,
2013-01-15 20:53:00,60.7,55.5,30.08,South,175,0.0,3.0,83,0.00,,---,0.01,VWS V14.01,2013-01-16 01:53:00,
2013-01-15 20:58:00,59.9,55.1,30.07,South,175,0.0,3.0,84,0.00,,---,0.01,VWS V14.01,2013-01-16 01:58:00,
2013-01-15 21:00:00,59.6,54.8,30.07,South,175,0.0,3.0,84,0.00,,---,0.01,VWS V14.01,2013-01-16 02:00:00,
2013-01-15 21:03:00,59.4,54.6,30.07,South,175,0.0,0.0,84,0.00,,---,0.01,VWS V14.01,2013-01-16 02:03:00,
2013-01-15 21:08:00,59.2,54.4,30.07,South,175,0.0,5.0,84,0.00,,---,0.01,VWS V14.01,2013-01-16 02:08:00,
2013-01-15 21:13:00,59.3,54.8,30.07,South,175,0.0,5.0,85,0.00,,---,0.01,VWS V14.01,2013-01-16 02:13:00,
2013-01-15 21:18:00,59.6,55.1,30.07,South,175,0.0,5.0,85,0.00,,---,0.01,VWS V14.01,2013-01-16 02:18:00,
2013-01-15 21:23:00,59.9,55.4,30.07,South,175,0.0,5.0,85,0.00,,---,0.01,VWS V14.01,2013-01-16 02:23:00,
2013-01-15 21:28:00,60.0,55.5,30.07,South,175,0.0,5.0,85,0.00,,---,0.01,VWS V14.01,2013-01-16 02:28:00,
2013-01-15 21:30:00,60.2,55.7,30.06,South,175,0.0,5.0,85,0.00,,---,0.01,VWS V14.01,2013-01-16 02:30:00,
2013-01-15 21:33:00,60.2,56.0,30.07,South,175,0.0,0.0,86,0.00,,---,0.01,VWS V14.01,2013-01-16 02:33:00,
2013-01-15 21:38:00,60.5,56.3,30.07,South,175,0.0,0.0,86,0.00,,---,0.01,VWS V14.01,2013-01-16 02:38:00,
2013-01-15 21:43:00,60.9,56.7,30.07,South,175,0.0,3.0,86,0.00,,---,0.01,VWS V14.01,2013-01-16 02:43:00,
2013-01-15 21:48:00,60.3,55.8,30.06,South,175,0.0,3.0,85,0.00,,---,0.01,VWS V14.01,2013-01-16 02:48:00,
2013-01-15 21:53:00,60.2,55.7,30.06,South,175,0.0,3.0,85,0.00,,---,0.01,VWS V14.01,2013-01-16 02:53:00,
2013-01-15 21:58:00,60.0,55.5,30.06,South,175,0.0,3.0,85,0.00,,---,0.01,VWS V14.01,2013-01-16 02:58:00,
2013-01-15 22:00:00,60.0,55.5,30.06,South,175,0.0,3.0,85,0.00,,---,0.01,VWS V14.01,2013-01-16 03:00:00,
2013-01-15 22:03:00,60.0,55.5,30.06,South,175,0.0,0.0,85,0.00,,---,0.01,VWS V14.01,2013-01-16 03:03:00,
2013-01-15 22:08:00,60.0,55.5,30.06,South,175,0.0,0.0,85,0.00,,---,0.01,VWS V14.01,2013-01-16 03:08:00,
2013-01-15 22:13:00,60.0,55.5,30.06,South,175,0.0,0.0,85,0.00,,---,0.01,VWS V14.01,2013-01-16 03:13:00,
2013-01-15 22:18:00,59.8,55.3,30.06,South,175,0.0,0.0,85,0.00,,---,0.01,VWS V14.01,2013-01-16 03:18:00,
2013-01-15 22:23:00,59.8,55.3,30.06,South,175,0.0,0.0,85,0.00,,---,0.01,VWS V14.01,2013-01-16 03:23:00,
2013-01-15 22:28:00,59.8,55.3,30.06,South,175,0.0,0.0,85,0.00,,---,0.01,VWS V14.01,2013-01-16 03:28:00,
2013-01-15 22:30:00,59.9,55.4,30.06,South,175,0.0,0.0,85,0.00,,---,0.01,VWS V14.01,2013-01-16 03:30:00,
2013-01-15 22:33:00,60.0,55.8,30.06,South,175,0.0,0.0,86,0.00,,---,0.01,VWS V14.01,2013-01-16 03:33:00,
2013-01-15 22:38:00,60.1,55.9,30.06,South,175,0.0,0.0,86,0.00,,---,0.01,VWS V14.01,2013-01-16 03:38:00,
2013-01-15 22:43:00,60.4,56.2,30.05,WSW,240,3.0,5.0,86,0.00,,---,0.01,VWS V14.01,2013-01-16 03:43:00,
2013-01-15 22:48:00,60.8,56.6,30.05,WSW,240,0.0,5.0,86,0.00,,---,0.01,VWS V14.01,2013-01-16 03:48:00,
2013-01-15 22:53:00,60.8,56.6,30.05,WSW,240,0.0,5.0,86,0.00,,---,0.01,VWS V14.01,2013-01-16 03:53:00,
2013-01-15 22:58:00,60.6,56.4,30.04,WSW,240,3.0,5.0,86,0.00,,---,0.01,VWS V14.01,2013-01-16 03:58:00,
2013-01-15 23:00:00,60.7,56.5,30.04,WSW,240,0.0,5.0,86,0.00,,---,0.01,VWS V14.01,2013-01-16 04:00:00,
2013-01-15 23:03:00,60.6,56.4,30.04,WSW,240,0.0,0.0,86,0.00,,---,0.01,VWS V14.01,2013-01-16 04:03:00,
2013-01-15 23:08:00,60.7,56.5,30.03,SSW,207,4.0,7.0,86,0.00,,---,0.01,VWS V14.01,2013-01-16 04:08:00,
2013-01-15 23:13:00,60.6,56.4,30.03,SSW,211,0.0,7.0,86,0.00,,---,0.01,VWS V14.01,2013-01-16 04:13:00,
2013-01-15 23:18:00,60.4,56.2,30.03,SSW,206,5.0,7.0,86,0.00,,---,0.01,VWS V14.01,2013-01-16 04:18:00,
2013-01-15 23:23:00,60.6,56.4,30.02,SW,219,0.0,7.0,86,0.00,,---,0.01,VWS V14.01,2013-01-16 04:23:00,
2013-01-15 23:28:00,60.9,56.7,30.02,SW,217,5.0,7.0,86,0.00,,---,0.01,VWS V14.01,2013-01-16 04:28:00,
2013-01-15 23:30:00,61.1,56.9,30.02,SW,225,3.0,7.0,86,0.00,,---,0.01,VWS V14.01,2013-01-16 04:30:00,
2013-01-15 23:33:00,61.3,57.1,30.02,SW,223,3.0,6.0,86,0.00,,---,0.01,VWS V14.01,2013-01-16 04:33:00,
2013-01-15 23:38:00,61.8,57.6,30.02,SW,221,4.0,11.0,86,0.00,,---,0.01,VWS V14.01,2013-01-16 04:38:00,
2013-01-15 23:43:00,61.7,57.5,30.02,SSW,207,10.0,11.0,86,0.00,,---,0.01,VWS V14.01,2013-01-16 04:43:00,
2013-01-15 23:48:00,61.9,57.7,30.02,SW,214,5.0,11.0,86,0.00,,---,0.01,VWS V14.01,2013-01-16 04:48:00,
2013-01-15 23:53:00,61.6,57.4,30.02,SW,219,0.0,11.0,86,0.00,,---,0.01,VWS V14.01,2013-01-16 04:53:00,
2013-01-15 23:58:00,61.4,57.2,30.01,SW,221,4.0,11.0,86,0.00,,---,0.01,VWS V14.01,2013-01-16 04:58:00,